Merrill, MI (48637)

3:18 PM EDT on October 31, 2014 (GMT -0400)
(MAC), Breckenridge | Change Station
CLOSE
Current Station
Personal Weather Station
Location: Wheeler, MI
Elevation: 733 ft
Nearby Weather Stations
Active Advisory: Wind Advisory

Elev 733 ft 43.41 °N, 84.46 °W | Updated 2 minutes ago

Snow
Snow
35.3 °F
Feels Like 25 °F
N
16.0
Wind Variable Wind from North
Gusts 17.0 mph

Today
High -- | Low -- °F
--% Chance of Precip.
Yesterday
High -- | Low -- °F
Precip. -- in
8:11 AM 6:29 PM
First Quarter, 58% visible
Pressure 30.05 in
Visibility 2.0 miles
Clouds Overcast 1500 ft
Windchill 25 °F
Dew Point 33 °F
Humidity 90%
Rainfall 0.15 in
Snow Depth Not available.
UV 1 out of 12
Pollen .10 out of 12
Air Quality Not available.
Flu Activity Not available.
METAR KMBS 311853Z 01024G30KT 2SM -SN BR OVC015 02/00 A3003 RMK AO2 PK WND 02031/1816 SFC VIS 3 SLP175 P0001 T00220000

More Conditions Fewer Conditions

Pressure 30.05 in
Visibility 2.0 miles
Clouds Overcast 1500 ft
Windchill 25 °F
Dew Point 33 °F
Humidity 90%
Rainfall 0.15 in
Snow Depth Not available.
UV 1 out of 12
Pollen .10 out of 12
Air Quality Not available.
Flu Activity Not available.
METAR KMBS 311853Z 01024G30KT 2SM -SN BR OVC015 02/00 A3003 RMK AO2 PK WND 02031/1816 SFC VIS 3 SLP175 P0001 T00220000

More Conditions Fewer Conditions

10-Day Weather Forecast

Almanac

Astronomy

Oct. 31, 2014 Rise Set
Actual Time
Civil Twilight
Nautical Twilight
Astronomical Twilight
Moon
Length of Visible Light
Length of Day
Tomorrow will be .
, % of the Moon is Illuminated

Today's Extremes

State Highs State Lows

Community

WunderPhotos

Upload Photos

1,766,696 photos uploaded!

WunderBlogs® & News

Nearby

Air Quality

  Air Quality AQ Index Pollutant
Not available.

Snow Depth

Station Depth Elevation

Earthquake Activity

City Distance Mag. Time & Date
Minimum magnitude displayed is 2.5.

Coastal Water Temperatures

Place Temperature

Nearby Weather Stations